Time;durP1;ratioP1;P1;durP2;ratioP2;P2;SDS_P1;SDS_P2;PMS_P1;PMS_P2;Temp;Humidity;BMP_temperature;BMP_pressure;BME280_temperature;BME280_humidity;BME280_pressure;Samples;Min_cycle;Max_cycle;Signal;HPM_P1;HPM_P2
2023/03/12 00:02:21;;;;;;;;;;;;;;;;;;2211078;67;1167;-21
2023/03/12 00:04:51;;;;;;;;;;;;;;;;;;2211724;67;1919;-21
2023/03/12 00:07:21;;;;;;;;;;;;;;;;;;2211559;67;1395;-21
2023/03/12 00:09:51;;;;;;;;;;;;;;;;;;2211274;59;1244;-21
2023/03/12 00:12:21;;;;;;;;;;;;;;;;;;2211746;67;1281;-21
2023/03/12 00:14:52;;;;;;;;;;;;;;;;;;2211341;67;1435;-21
2023/03/12 00:17:22;;;;;;;;;;;;;;;;;;2211894;67;1195;-21
2023/03/12 00:19:52;;;;;;;;;;;;;;;;;;2211354;67;1937;-21
2023/03/12 00:22:24;;;;;;;;;;;;;;;;;;2212430;67;1757;-21
2023/03/12 00:24:55;;;;;;;;;;;;;;;;;;2211781;67;1280;-21
2023/03/12 00:27:26;;;;;;;;;;;;;;;;;;2211272;67;1191;-21
2023/03/12 00:29:56;;;;;;;;;;;;;;;;;;2211268;59;2335;-21
2023/03/12 00:32:26;;;;;;;;;;;;;;;;;;2212358;67;1351;-21
2023/03/12 00:34:56;;;;;;;;;;;;;;;;;;2210817;67;1305;-21
2023/03/12 00:37:27;;;;;;;;;;;;;;;;;;2211510;67;1714;-21
2023/03/12 00:39:57;;;;;;;;;;;;;;;;;;2211184;67;1995;-21
2023/03/12 00:42:27;;;;;;;;;;;;;;;;;;2211266;67;1292;-21
2023/03/12 00:44:57;;;;;;;;;;;;;;;;;;2212010;67;1331;-21
2023/03/12 00:47:28;;;;;;;;;;;;;;;;;;2211019;67;1102;-21
2023/03/12 00:49:58;;;;;;;;;;;;;;;;;;2210787;59;1367;-21
2023/03/12 00:52:28;;;;;;;;;;;;;;;;;;2211706;67;1484;-21
2023/03/12 00:54:58;;;;;;;;;;;;;;;;;;2211606;67;1373;-21
2023/03/12 00:57:28;;;;;;;;;;;;;;;;;;2211715;67;1153;-21
2023/03/12 00:59:59;;;;;;;;;;;;;;;;;;2211128;67;1990;-21
2023/03/12 01:02:29;;;;;;;;;;;;;;;;;;2214010;66;1143;-21
2023/03/12 01:05:02;;;;;;;;;;;;;;;;;;2210980;67;1060;-21
2023/03/12 01:07:33;;;;;;;;;;;;;;;;;;2211760;67;1342;-21
2023/03/12 01:10:04;;;;;;;;;;;;;;;;;;2211158;59;1700;-21
2023/03/12 01:12:34;;;;;;;;;;;;;;;;;;2212163;67;1250;-21
2023/03/12 01:15:05;;;;;;;;;;;;;;;;;;2211310;67;1382;-21
2023/03/12 01:17:35;;;;;;;;;;;;;;;;;;2211108;67;2338;-20
2023/03/12 01:20:07;;;;;;;;;;;;;;;;;;2210633;62;1972;-20
2023/03/12 01:22:37;;;;;;;;;;;;;;;;;;2211551;67;1390;-20
2023/03/12 01:25:07;;;;;;;;;;;;;;;;;;2211847;67;1644;-20
2023/03/12 01:27:38;;;;;;;;;;;;;;;;;;2211501;67;1492;-20
2023/03/12 01:30:11;;;;;;;;;;;;;;;;;;2211366;59;1726;-20
2023/03/12 01:32:41;;;;;;;;;;;;;;;;;;2210695;67;1233;-20
2023/03/12 01:35:12;;;;;;;;;;;;;;;;;;2211202;59;1720;-20
2023/03/12 01:37:42;;;;;;;;;;;;;;;;;;2211358;67;1306;-20
2023/03/12 01:40:20;;;;;;;;;;;;;;;;;;2210858;67;1992;-20
2023/03/12 01:42:51;;;;;;;;;;;;;;;;;;2211806;67;1254;-20
2023/03/12 01:45:40;;;;;;;;;;;;;;;;;;2211344;67;1334;-20
2023/03/12 01:48:11;;;;;;;;;;;;;;;;;;2213711;66;1110;-20
2023/03/12 01:50:41;;;;;;;;;;;;;;;;;;2210706;59;1961;-20
2023/03/12 01:53:11;;;;;;;;;;;;;;;;;;2211325;67;1119;-20
2023/03/12 01:55:42;;;;;;;;;;;;;;;;;;2211114;67;1140;-20
2023/03/12 01:58:12;;;;;;;;;;;;;;;;;;2211766;67;1771;-20
2023/03/12 02:00:45;;;;;;;;;;;;;;;;;;2210826;59;1989;-20
2023/03/12 02:03:16;;;;;;;;;;;;;;;;;;2211248;67;1144;-20
2023/03/12 02:05:55;;;;;;;;;;;;;;;;;;2211858;67;2254;-20
2023/03/12 02:08:25;;;;;;;;;;;;;;;;;;2211779;67;1124;-20
2023/03/12 02:10:55;;;;;;;;;;;;;;;;;;2211856;59;2164;-20
2023/03/12 02:13:26;;;;;;;;;;;;;;;;;;2212513;67;1439;-20
2023/03/12 02:15:57;;;;;;;;;;;;;;;;;;2211496;67;1715;-20
2023/03/12 02:18:27;;;;;;;;;;;;;;;;;;2211716;67;1243;-20
2023/03/12 02:21:03;;;;;;;;;;;;;;;;;;2211312;67;1974;-20
2023/03/12 02:23:52;;;;;;;;;;;;;;;;;;2212089;67;1140;-20
2023/03/12 02:26:23;;;;;;;;;;;;;;;;;;2211811;67;1154;-20
2023/03/12 02:28:54;;;;;;;;;;;;;;;;;;2211753;67;1087;-20
2023/03/12 02:31:26;;;;;;;;;;;;;;;;;;2212668;66;1072;-20
2023/03/12 02:33:57;;;;;;;;;;;;;;;;;;2212935;67;1203;-20
2023/03/12 02:36:27;;;;;;;;;;;;;;;;;;2213726;67;1056;-20
2023/03/12 02:38:57;;;;;;;;;;;;;;;;;;2213166;59;1859;-20
2023/03/12 02:41:30;;;;;;;;;;;;;;;;;;2212608;67;1935;-20
2023/03/12 02:44:21;;;;;;;;;;;;;;;;;;2212045;67;1845;-20
2023/03/12 02:46:55;;;;;;;;;;;;;;;;;;2211709;67;1194;-20
2023/03/12 02:49:27;;;;;;;;;;;;;;;;;;2213446;67;1183;-20
2023/03/12 02:51:57;;;;;;;;;;;;;;;;;;2213259;67;1430;-20
2023/03/12 02:54:28;;;;;;;;;;;;;;;;;;2214015;67;944;-20
2023/03/12 02:56:58;;;;;;;;;;;;;;;;;;2212616;67;1103;-20
2023/03/12 02:59:31;;;;;;;;;;;;;;;;;;2211402;66;1386;-20
2023/03/12 03:02:03;;;;;;;;;;;;;;;;;;2211413;66;2023;-20
2023/03/12 03:04:33;;;;;;;;;;;;;;;;;;2210645;59;1688;-20
2023/03/12 03:07:04;;;;;;;;;;;;;;;;;;2211909;67;1408;-20
2023/03/12 03:09:34;;;;;;;;;;;;;;;;;;2207427;67;1159;-20
2023/03/12 03:12:04;;;;;;;;;;;;;;;;;;2211840;67;1326;-20
2023/03/12 03:14:35;;;;;;;;;;;;;;;;;;2211424;67;1105;-20
2023/03/12 03:17:05;;;;;;;;;;;;;;;;;;2211359;67;1143;-20
2023/03/12 03:19:35;;;;;;;;;;;;;;;;;;2211337;67;1293;-20
2023/03/12 03:22:05;;;;;;;;;;;;;;;;;;2211619;67;2070;-20
2023/03/12 03:24:35;;;;;;;;;;;;;;;;;;2211688;59;1539;-21
2023/03/12 03:27:06;;;;;;;;;;;;;;;;;;2211803;59;1978;-21
2023/03/12 03:29:36;;;;;;;;;;;;;;;;;;2211815;59;2037;-21
2023/03/12 03:32:06;;;;;;;;;;;;;;;;;;2211673;67;1270;-21
2023/03/12 03:34:37;;;;;;;;;;;;;;;;;;2211115;67;1300;-21
2023/03/12 03:37:11;;;;;;;;;;;;;;;;;;2211562;67;1393;-21
2023/03/12 03:39:41;;;;;;;;;;;;;;;;;;2211961;67;1936;-21
2023/03/12 03:42:11;;;;;;;;;;;;;;;;;;2212249;67;1633;-21
2023/03/12 03:44:41;;;;;;;;;;;;;;;;;;2211119;67;1173;-21
2023/03/12 03:47:11;;;;;;;;;;;;;;;;;;2211670;67;1119;-21
2023/03/12 03:49:45;;;;;;;;;;;;;;;;;;2211510;67;1762;-21
2023/03/12 03:52:15;;;;;;;;;;;;;;;;;;2211800;67;1263;-21
2023/03/12 03:54:45;;;;;;;;;;;;;;;;;;2211731;67;1022;-21
2023/03/12 03:57:15;;;;;;;;;;;;;;;;;;2211402;67;1199;-21
2023/03/12 03:59:46;;;;;;;;;;;;;;;;;;2211080;67;1928;-21
2023/03/12 04:02:17;;;;;;;;;;;;;;;;;;2211549;67;1143;-21
2023/03/12 04:04:47;;;;;;;;;;;;;;;;;;2212178;67;2223;-21
2023/03/12 04:07:17;;;;;;;;;;;;;;;;;;2211859;67;1316;-21
2023/03/12 04:09:48;;;;;;;;;;;;;;;;;;2217605;53;1844;-24
2023/03/12 04:12:19;;;;;;;;;;;;;;;;;;2212431;66;1748;-24
2023/03/12 04:14:49;;;;;;;;;;;;;;;;;;2211623;66;1554;-24
2023/03/12 04:17:20;;;;;;;;;;;;;;;;;;2213257;67;1264;-24
2023/03/12 04:19:50;;;;;;;;;;;;;;;;;;2212307;66;1946;-24
2023/03/12 04:22:20;;;;;;;;;;;;;;;;;;2210205;59;1489;-24
2023/03/12 04:24:50;;;;;;;;;;;;;;;;;;2209739;67;1410;-24
2023/03/12 04:27:20;;;;;;;;;;;;;;;;;;2208845;67;1362;-24
2023/03/12 04:29:51;;;;;;;;;;;;;;;;;;2209867;59;1709;-24
2023/03/12 04:32:21;;;;;;;;;;;;;;;;;;2210967;67;1513;-24
2023/03/12 04:34:51;;;;;;;;;;;;;;;;;;2212155;66;1333;-24
2023/03/12 04:37:21;;;;;;;;;;;;;;;;;;2209495;59;1368;-25
2023/03/12 04:39:51;;;;;;;;;;;;;;;;;;2212045;66;1948;-24
2023/03/12 04:42:22;;;;;;;;;;;;;;;;;;2210055;59;1216;-24
2023/03/12 04:44:52;;;;;;;;;;;;;;;;;;2210296;67;1800;-24
2023/03/12 04:47:22;;;;;;;;;;;;;;;;;;2209821;67;1208;-24
2023/03/12 04:49:52;;;;;;;;;;;;;;;;;;2209271;67;1617;-25
2023/03/12 04:52:23;;;;;;;;;;;;;;;;;;2209916;67;1135;-24
2023/03/12 04:54:58;;;;;;;;;;;;;;;;;;2209870;67;1411;-24
2023/03/12 04:57:28;;;;;;;;;;;;;;;;;;2209746;67;1368;-24
2023/03/12 04:59:58;;;;;;;;;;;;;;;;;;2208932;67;1927;-24
2023/03/12 05:02:28;;;;;;;;;;;;;;;;;;2208329;67;1157;-24
2023/03/12 05:04:59;;;;;;;;;;;;;;;;;;2209244;67;1224;-24
2023/03/12 05:07:29;;;;;;;;;;;;;;;;;;2209731;67;1786;-25
2023/03/12 05:09:59;;;;;;;;;;;;;;;;;;2208557;59;1279;-24
2023/03/12 05:12:29;;;;;;;;;;;;;;;;;;2208960;67;1293;-24
2023/03/12 05:15:00;;;;;;;;;;;;;;;;;;2209426;67;1066;-24
2023/03/12 05:17:30;;;;;;;;;;;;;;;;;;2211528;66;1468;-24
2023/03/12 05:20:00;;;;;;;;;;;;;;;;;;2209254;67;1929;-24
2023/03/12 05:22:30;;;;;;;;;;;;;;;;;;2209102;66;1415;-24
2023/03/12 05:25:02;;;;;;;;;;;;;;;;;;2209479;67;1329;-24
2023/03/12 05:27:32;;;;;;;;;;;;;;;;;;2210096;67;1444;-25
2023/03/12 05:30:04;;;;;;;;;;;;;;;;;;2209988;67;1435;-24
2023/03/12 05:32:34;;;;;;;;;;;;;;;;;;2208184;59;1210;-24
2023/03/12 05:35:04;;;;;;;;;;;;;;;;;;2208592;67;1698;-24
2023/03/12 05:37:34;;;;;;;;;;;;;;;;;;2209335;67;1107;-24
2023/03/12 05:40:06;;;;;;;;;;;;;;;;;;2209672;67;1941;-24
2023/03/12 05:42:36;;;;;;;;;;;;;;;;;;2210339;67;1256;-24
2023/03/12 05:45:07;;;;;;;;;;;;;;;;;;2210001;67;1100;-24
2023/03/12 05:47:37;;;;;;;;;;;;;;;;;;2209836;67;1740;-34
2023/03/12 05:50:09;;;;;;;;;;;;;;;;;;2210480;67;1398;-24
2023/03/12 05:52:39;;;;;;;;;;;;;;;;;;2210728;67;1097;-24
2023/03/12 05:55:10;;;;;;;;;;;;;;;;;;2210404;67;1729;-24
2023/03/12 05:57:40;;;;;;;;;;;;;;;;;;2208749;67;1712;-25
2023/03/12 06:00:12;;;;;;;;;;;;;;;;;;2210106;67;1938;-25
2023/03/12 06:02:42;;;;;;;;;;;;;;;;;;2213297;66;1255;-25
2023/03/12 06:05:13;;;;;;;;;;;;;;;;;;2210171;67;1436;-25
2023/03/12 06:07:43;;;;;;;;;;;;;;;;;;2209121;67;1220;-25
2023/03/12 06:10:13;;;;;;;;;;;;;;;;;;2209769;59;1350;-25
2023/03/12 06:12:44;;;;;;;;;;;;;;;;;;2210795;67;1896;-25
2023/03/12 06:15:14;;;;;;;;;;;;;;;;;;2211254;67;1107;-26
2023/03/12 06:17:44;;;;;;;;;;;;;;;;;;2210998;67;1224;-25
2023/03/12 06:20:14;;;;;;;;;;;;;;;;;;2211462;67;1908;-26
2023/03/12 06:22:44;;;;;;;;;;;;;;;;;;2211200;67;1500;-27
2023/03/12 06:25:15;;;;;;;;;;;;;;;;;;2211834;67;2415;-27
2023/03/12 06:27:45;;;;;;;;;;;;;;;;;;2212594;67;1099;-26
2023/03/12 06:30:21;;;;;;;;;;;;;;;;;;2209458;59;2048;-26
2023/03/12 06:32:52;;;;;;;;;;;;;;;;;;2209991;67;1795;-26
2023/03/12 06:35:22;;;;;;;;;;;;;;;;;;2211610;67;1273;-26
2023/03/12 06:37:53;;;;;;;;;;;;;;;;;;2210601;67;1412;-25
2023/03/12 06:40:23;;;;;;;;;;;;;;;;;;2209492;67;2001;-25
2023/03/12 06:42:53;;;;;;;;;;;;;;;;;;2208835;67;1831;-25
2023/03/12 06:45:23;;;;;;;;;;;;;;;;;;2210606;67;1340;-25
2023/03/12 06:47:53;;;;;;;;;;;;;;;;;;2209786;67;1273;-25
2023/03/12 06:50:24;;;;;;;;;;;;;;;;;;2209014;59;1355;-25
2023/03/12 06:52:54;;;;;;;;;;;;;;;;;;2209182;59;1167;-25
2023/03/12 06:55:24;;;;;;;;;;;;;;;;;;2209359;67;1301;-25
2023/03/12 06:57:54;;;;;;;;;;;;;;;;;;2209021;59;1998;-25
2023/03/12 07:00:24;;;;;;;;;;;;;;;;;;2209522;67;1947;-25
2023/03/12 07:02:55;;;;;;;;;;;;;;;;;;2211506;67;1447;-25
2023/03/12 07:05:26;;;;;;;;;;;;;;;;;;2212073;66;1774;-25
2023/03/12 07:07:56;;;;;;;;;;;;;;;;;;2212541;67;1278;-25
2023/03/12 07:10:30;;;;;;;;;;;;;;;;;;2212494;67;1677;-25
2023/03/12 07:13:00;;;;;;;;;;;;;;;;;;2210878;67;1883;-25
2023/03/12 07:15:30;;;;;;;;;;;;;;;;;;2209664;67;1159;-25
2023/03/12 07:18:04;;;;;;;;;;;;;;;;;;2208215;67;1419;-25
2023/03/12 07:20:35;;;;;;;;;;;;;;;;;;2208996;67;1946;-25
2023/03/12 07:23:06;;;;;;;;;;;;;;;;;;2211125;67;1795;-23
2023/03/12 07:25:37;;;;;;;;;;;;;;;;;;2210960;67;2268;-25
2023/03/12 07:28:07;;;;;;;;;;;;;;;;;;2209881;67;1787;-25
2023/03/12 07:30:38;;;;;;;;;;;;;;;;;;2210179;67;1576;-25
2023/03/12 07:33:11;;;;;;;;;;;;;;;;;;2210486;67;1818;-25
2023/03/12 07:35:41;;;;;;;;;;;;;;;;;;2210117;67;1995;-25
2023/03/12 07:38:12;;;;;;;;;;;;;;;;;;2209023;59;1255;-25
2023/03/12 07:40:42;;;;;;;;;;;;;;;;;;2209276;59;1941;-25
2023/03/12 07:43:12;;;;;;;;;;;;;;;;;;2209854;67;1541;-25
2023/03/12 07:45:42;;;;;;;;;;;;;;;;;;2209795;67;1761;-25
2023/03/12 07:48:16;;;;;;;;;;;;;;;;;;2209910;67;1367;-25
2023/03/12 07:50:46;;;;;;;;;;;;;;;;;;2208174;67;1741;-25
2023/03/12 07:53:16;;;;;;;;;;;;;;;;;;2209548;67;1231;-25
2023/03/12 07:55:47;;;;;;;;;;;;;;;;;;2209632;67;1200;-25
2023/03/12 07:58:17;;;;;;;;;;;;;;;;;;2208967;67;1341;-25
2023/03/12 08:00:47;;;;;;;;;;;;;;;;;;2208927;67;1935;-25
2023/03/12 08:03:17;;;;;;;;;;;;;;;;;;2209098;67;1142;-25
2023/03/12 08:05:55;;;;;;;;;;;;;;;;;;2210120;67;1315;-25
2023/03/12 08:08:26;;;;;;;;;;;;;;;;;;2209673;67;1388;-25
2023/03/12 08:10:56;;;;;;;;;;;;;;;;;;2208837;59;1672;-25
2023/03/12 08:13:27;;;;;;;;;;;;;;;;;;2208573;67;1219;-25
2023/03/12 08:15:57;;;;;;;;;;;;;;;;;;2209329;67;1230;-25
2023/03/12 08:18:27;;;;;;;;;;;;;;;;;;2209281;67;1536;-25
2023/03/12 08:20:58;;;;;;;;;;;;;;;;;;2210002;67;1990;-25
2023/03/12 08:23:28;;;;;;;;;;;;;;;;;;2209901;67;1289;-25
2023/03/12 08:25:58;;;;;;;;;;;;;;;;;;2209674;59;1261;-25
2023/03/12 08:28:29;;;;;;;;;;;;;;;;;;2210145;67;1285;-25
2023/03/12 08:30:59;;;;;;;;;;;;;;;;;;2212201;66;1798;-25
2023/03/12 08:33:30;;;;;;;;;;;;;;;;;;2210711;67;1558;-25
2023/03/12 08:36:00;;;;;;;;;;;;;;;;;;2210026;66;1794;-25
2023/03/12 08:38:30;;;;;;;;;;;;;;;;;;2208387;67;1326;-26
2023/03/12 08:41:00;;;;;;;;;;;;;;;;;;2209983;59;1981;-26
2023/03/12 08:43:31;;;;;;;;;;;;;;;;;;2210753;67;1321;-26
2023/03/12 08:46:01;;;;;;;;;;;;;;;;;;2209694;67;1202;-26
2023/03/12 08:48:32;;;;;;;;;;;;;;;;;;2210087;67;1303;-26
2023/03/12 08:51:03;;;;;;;;;;;;;;;;;;2209127;67;1139;-24
2023/03/12 08:53:35;;;;;;;;;;;;;;;;;;2210409;67;1355;-24
2023/03/12 08:56:05;;;;;;;;;;;;;;;;;;2210657;59;1271;-24
2023/03/12 08:58:35;;;;;;;;;;;;;;;;;;2212103;66;1235;-24
2023/03/12 09:01:09;;;;;;;;;;;;;;;;;;2208493;67;1913;-24
2023/03/12 09:03:42;;;;;;;;;;;;;;;;;;2210802;67;1521;-24
2023/03/12 09:06:15;;;;;;;;;;;;;;;;;;2210696;67;2041;-24
2023/03/12 09:08:45;;;;;;;;;;;;;;;;;;2211116;67;2124;-24
2023/03/12 09:11:16;;;;;;;;;;;;;;;;;;2209818;59;1887;-24
2023/03/12 09:13:46;;;;;;;;;;;;;;;;;;2210363;67;1178;-24
2023/03/12 09:16:16;;;;;;;;;;;;;;;;;;2212736;66;1278;-24
2023/03/12 09:18:47;;;;;;;;;;;;;;;;;;2209384;67;1558;-24
2023/03/12 09:21:17;;;;;;;;;;;;;;;;;;2208961;67;1933;-24
2023/03/12 09:23:48;;;;;;;;;;;;;;;;;;2209357;67;1710;-24
2023/03/12 09:26:18;;;;;;;;;;;;;;;;;;2208968;67;1253;-24
2023/03/12 09:28:49;;;;;;;;;;;;;;;;;;2208795;59;1537;-24
2023/03/12 09:31:22;;;;;;;;;;;;;;;;;;2211866;66;1371;-26
2023/03/12 09:33:56;;;;;;;;;;;;;;;;;;2208944;67;1294;-26
2023/03/12 09:36:26;;;;;;;;;;;;;;;;;;2208723;59;1528;-24
2023/03/12 09:38:56;;;;;;;;;;;;;;;;;;2209251;67;1601;-25
2023/03/12 09:41:29;;;;;;;;;;;;;;;;;;2209174;59;1928;-25
2023/03/12 09:44:04;;;;;;;;;;;;;;;;;;2208475;67;1500;-27
2023/03/12 09:46:47;;;;;;;;;;;;;;;;;;2208886;67;1268;-27
2023/03/12 09:49:21;;;;;;;;;;;;;;;;;;2209156;67;1271;-25
2023/03/12 09:51:54;;;;;;;;;;;;;;;;;;2210944;67;1264;-25
2023/03/12 09:54:33;;;;;;;;;;;;;;;;;;2209979;67;1657;-24
2023/03/12 09:57:10;;;;;;;;;;;;;;;;;;2207927;67;1223;-24
2023/03/12 09:59:40;;;;;;;;;;;;;;;;;;2208461;67;1804;-27
2023/03/12 10:02:28;;;;;;;;;;;;;;;;;;2210463;67;2000;-26
2023/03/12 10:05:04;;;;;;;;;;;;;;;;;;2209924;67;1680;-24
2023/03/12 10:07:37;;;;;;;;;;;;;;;;;;2208459;67;1837;-25
2023/03/12 10:10:40;;;;;;;;;;;;;;;;;;2209037;59;1872;-25
2023/03/12 10:13:34;;;;;;;;;;;;;;;;;;2208074;67;1330;-25
2023/03/12 10:16:10;;;;;;;;;;;;;;;;;;2210511;67;1213;-25
2023/03/12 10:18:52;;;;;;;;;;;;;;;;;;2209445;67;1535;-27
2023/03/12 10:21:34;;;;;;;;;;;;;;;;;;2209312;67;1927;-27
2023/03/12 10:24:04;;;;;;;;;;;;;;;;;;2209239;67;1676;-25
2023/03/12 10:26:38;;;;;;;;;;;;;;;;;;2209959;67;1154;-25
2023/03/12 10:29:26;;;;;;;;;;;;;;;;;;2209987;67;1034;-25
2023/03/12 10:32:11;;;;;;;;;;;;;;;;;;2209171;67;1321;-25
2023/03/12 10:34:44;;;;;;;;;;;;;;;;;;2210046;67;1228;-25
2023/03/12 10:37:18;;;;;;;;;;;;;;;;;;2213267;66;1132;-25
2023/03/12 10:39:49;;;;;;;;;;;;;;;;;;2209148;66;1744;-25
2023/03/12 10:42:21;;;;;;;;;;;;;;;;;;2209925;67;1950;-25
2023/03/12 10:45:11;;;;;;;;;;;;;;;;;;2209356;67;1082;-25
2023/03/12 10:47:43;;;;;;;;;;;;;;;;;;2207092;67;1710;-27
2023/03/12 10:50:22;;;;;;;;;;;;;;;;;;2209704;66;1498;-27
2023/03/12 10:53:11;;;;;;;;;;;;;;;;;;2206515;67;1147;-25
2023/03/12 10:55:41;;;;;;;;;;;;;;;;;;2208611;67;1739;-25
2023/03/12 10:58:21;;;;;;;;;;;;;;;;;;2210425;59;1314;-25
2023/03/12 11:00:58;;;;;;;;;;;;;;;;;;2209267;67;1929;-25
2023/03/12 11:03:29;;;;;;;;;;;;;;;;;;2210659;67;1199;-25
2023/03/12 11:06:00;;;;;;;;;;;;;;;;;;2208294;67;1693;-25
2023/03/12 11:08:34;;;;;;;;;;;;;;;;;;2210526;67;1695;-25
2023/03/12 11:11:05;;;;;;;;;;;;;;;;;;2208921;59;1389;-25
2023/03/12 11:13:37;;;;;;;;;;;;;;;;;;2209738;67;1457;-26
2023/03/12 11:16:16;;;;;;;;;;;;;;;;;;2208590;67;1687;-25
2023/03/12 11:18:55;;;;;;;;;;;;;;;;;;2208550;67;1180;-25
2023/03/12 11:21:26;;;;;;;;;;;;;;;;;;2209494;67;1939;-25
2023/03/12 11:23:56;;;;;;;;;;;;;;;;;;2210319;66;1297;-27
2023/03/12 11:26:36;;;;;;;;;;;;;;;;;;2209973;67;1516;-27
2023/03/12 11:29:15;;;;;;;;;;;;;;;;;;2211419;66;1376;-27
2023/03/12 11:32:02;;;;;;;;;;;;;;;;;;2212364;66;1671;-28
2023/03/12 11:34:35;;;;;;;;;;;;;;;;;;2211038;67;1260;-25
2023/03/12 11:37:24;;;;;;;;;;;;;;;;;;2213187;66;1520;-25
2023/03/12 11:40:08;;;;;;;;;;;;;;;;;;2209208;67;1402;-26
2023/03/12 11:42:51;;;;;;;;;;;;;;;;;;2210332;67;1130;-25
2023/03/12 11:45:38;;;;;;;;;;;;;;;;;;2208935;59;2188;-26
2023/03/12 11:48:26;;;;;;;;;;;;;;;;;;2210367;67;1292;-25
2023/03/12 11:51:02;;;;;;;;;;;;;;;;;;2210313;67;1370;-25
2023/03/12 11:53:35;;;;;;;;;;;;;;;;;;2213142;67;1494;-25
2023/03/12 11:56:06;;;;;;;;;;;;;;;;;;2213322;67;1164;-27
2023/03/12 11:58:39;;;;;;;;;;;;;;;;;;2211909;59;1295;-26
2023/03/12 12:01:17;;;;;;;;;;;;;;;;;;2209840;59;1953;-25
2023/03/12 12:03:51;;;;;;;;;;;;;;;;;;2208662;67;1081;-26
2023/03/12 12:06:51;;;;;;;;;;;;;;;;;;2210364;67;1240;-25
2023/03/12 12:09:31;;;;;;;;;;;;;;;;;;2200489;66;2068;-25
2023/03/12 12:12:19;;;;;;;;;;;;;;;;;;2210331;59;1918;-26
2023/03/12 12:14:52;;;;;;;;;;;;;;;;;;2210434;67;1787;-25
2023/03/12 12:17:29;;;;;;;;;;;;;;;;;;2213474;66;1864;-25
2023/03/12 12:20:10;;;;;;;;;;;;;;;;;;2210162;67;1532;-28
2023/03/12 12:23:08;;;;;;;;;;;;;;;;;;2209789;67;1093;-24
2023/03/12 12:25:45;;;;;;;;;;;;;;;;;;2208701;67;1300;-24
2023/03/12 12:28:28;;;;;;;;;;;;;;;;;;2209129;67;1894;-24
2023/03/12 12:31:05;;;;;;;;;;;;;;;;;;2208807;59;1939;-24
2023/03/12 12:33:41;;;;;;;;;;;;;;;;;;2211819;59;1317;-24
2023/03/12 12:36:13;;;;;;;;;;;;;;;;;;2210748;60;1711;-24
2023/03/12 12:38:48;;;;;;;;;;;;;;;;;;2209660;67;1479;-24
2023/03/12 12:41:26;;;;;;;;;;;;;;;;;;2210184;67;1942;-24
2023/03/12 12:44:17;;;;;;;;;;;;;;;;;;2210458;67;1696;-24
2023/03/12 12:46:54;;;;;;;;;;;;;;;;;;2209842;67;1255;-24
2023/03/12 12:49:45;;;;;;;;;;;;;;;;;;2209792;67;1225;-24
2023/03/12 12:52:18;;;;;;;;;;;;;;;;;;2209952;66;1304;-23
2023/03/12 12:54:58;;;;;;;;;;;;;;;;;;2210114;67;1849;-24
2023/03/12 12:57:38;;;;;;;;;;;;;;;;;;2208190;67;1334;-24
2023/03/12 13:00:11;;;;;;;;;;;;;;;;;;2208820;67;1933;-24
2023/03/12 13:02:43;;;;;;;;;;;;;;;;;;2210170;67;2128;-24
2023/03/12 13:05:18;;;;;;;;;;;;;;;;;;2209550;67;1504;-24
2023/03/12 13:07:48;;;;;;;;;;;;;;;;;;2209786;67;1674;-24
2023/03/12 13:10:31;;;;;;;;;;;;;;;;;;2208070;59;1246;-23
2023/03/12 13:13:16;;;;;;;;;;;;;;;;;;2209119;67;1180;-23
2023/03/12 13:15:47;;;;;;;;;;;;;;;;;;2209486;67;1751;-24
2023/03/12 13:18:25;;;;;;;;;;;;;;;;;;2209623;67;1742;-24
2023/03/12 13:21:05;;;;;;;;;;;;;;;;;;2208548;67;1939;-23
2023/03/12 13:23:43;;;;;;;;;;;;;;;;;;2209865;67;1869;-23
2023/03/12 13:26:19;;;;;;;;;;;;;;;;;;2209146;67;1470;-24
2023/03/12 13:28:52;;;;;;;;;;;;;;;;;;2210186;67;1618;-23
2023/03/12 13:31:22;;;;;;;;;;;;;;;;;;2209522;67;1690;-23
2023/03/12 13:34:18;;;;;;;;;;;;;;;;;;2209858;67;1169;-24
2023/03/12 13:36:56;;;;;;;;;;;;;;;;;;2209624;67;1322;-24
2023/03/12 13:39:33;;;;;;;;;;;;;;;;;;2210281;67;1782;-23
2023/03/12 13:42:22;;;;;;;;;;;;;;;;;;2210669;67;1983;-23
2023/03/12 13:45:09;;;;;;;;;;;;;;;;;;2209650;67;1786;-23
2023/03/12 13:47:42;;;;;;;;;;;;;;;;;;2211318;66;1160;-23
2023/03/12 13:50:14;;;;;;;;;;;;;;;;;;2208298;67;1247;-23
2023/03/12 13:52:50;;;;;;;;;;;;;;;;;;2209738;67;1945;-23
2023/03/12 13:55:28;;;;;;;;;;;;;;;;;;2208645;67;1806;-22
2023/03/12 13:58:05;;;;;;;;;;;;;;;;;;2208360;67;1695;-22
2023/03/12 14:00:42;;;;;;;;;;;;;;;;;;2209267;67;1948;-22
2023/03/12 14:03:12;;;;;;;;;;;;;;;;;;2210685;67;1423;-22
2023/03/12 14:05:46;;;;;;;;;;;;;;;;;;2209967;67;1676;-22
2023/03/12 14:08:31;;;;;;;;;;;;;;;;;;2210740;67;1535;-23
2023/03/12 14:11:01;;;;;;;;;;;;;;;;;;2209895;59;1468;-22
2023/03/12 14:13:42;;;;;;;;;;;;;;;;;;2210761;67;1246;-22
2023/03/12 14:16:25;;;;;;;;;;;;;;;;;;2213586;66;1215;-22
2023/03/12 14:18:56;;;;;;;;;;;;;;;;;;2210065;67;1306;-22
2023/03/12 14:21:29;;;;;;;;;;;;;;;;;;2211863;66;1927;-22
2023/03/12 14:24:01;;;;;;;;;;;;;;;;;;2210439;67;1390;-22
2023/03/12 14:26:32;;;;;;;;;;;;;;;;;;2211889;67;1136;-22
2023/03/12 14:29:13;;;;;;;;;;;;;;;;;;2210364;66;1377;-22
2023/03/12 14:31:44;;;;;;;;;;;;;;;;;;2209727;67;1404;-22
2023/03/12 14:34:19;;;;;;;;;;;;;;;;;;2210427;66;1109;-28
2023/03/12 14:37:08;;;;;;;;;;;;;;;;;;2210455;59;1581;-22
2023/03/12 14:39:44;;;;;;;;;;;;;;;;;;2209922;59;1214;-22
2023/03/12 14:42:24;;;;;;;;;;;;;;;;;;2209246;67;1912;-22
2023/03/12 14:44:58;;;;;;;;;;;;;;;;;;2209214;67;1752;-23
2023/03/12 14:47:28;;;;;;;;;;;;;;;;;;2210246;67;1128;-22
2023/03/12 14:49:58;;;;;;;;;;;;;;;;;;2209983;66;1234;-23
2023/03/12 14:52:29;;;;;;;;;;;;;;;;;;2209700;67;1748;-23
2023/03/12 14:55:01;;;;;;;;;;;;;;;;;;2210211;67;1289;-22
2023/03/12 14:57:32;;;;;;;;;;;;;;;;;;2210518;67;1239;-22
2023/03/12 15:00:03;;;;;;;;;;;;;;;;;;2214138;58;1471;-22
2023/03/12 15:02:36;;;;;;;;;;;;;;;;;;2211380;66;1936;-22
2023/03/12 15:05:14;;;;;;;;;;;;;;;;;;2210354;59;1239;-22
2023/03/12 15:07:45;;;;;;;;;;;;;;;;;;2210823;59;1147;-23
2023/03/12 15:10:18;;;;;;;;;;;;;;;;;;2210475;59;1951;-22
2023/03/12 15:12:50;;;;;;;;;;;;;;;;;;2209581;67;1649;-22
2023/03/12 15:15:20;;;;;;;;;;;;;;;;;;2208979;67;1107;-22
2023/03/12 15:17:50;;;;;;;;;;;;;;;;;;2209522;67;1235;-22
2023/03/12 15:20:24;;;;;;;;;;;;;;;;;;2209644;67;1928;-22
2023/03/12 15:22:54;;;;;;;;;;;;;;;;;;2209474;67;1225;-22
2023/03/12 15:25:33;;;;;;;;;;;;;;;;;;2209264;67;1264;-22
2023/03/12 15:28:06;;;;;;;;;;;;;;;;;;2209299;67;1812;-22
2023/03/12 15:30:37;;;;;;;;;;;;;;;;;;2209707;67;1276;-22
2023/03/12 15:33:20;;;;;;;;;;;;;;;;;;2210094;59;1510;-22
2023/03/12 15:36:05;;;;;;;;;;;;;;;;;;2210633;67;1826;-22
2023/03/12 15:38:37;;;;;;;;;;;;;;;;;;2209412;67;1759;-22
2023/03/12 15:41:10;;;;;;;;;;;;;;;;;;2210171;67;1929;-22
2023/03/12 15:43:45;;;;;;;;;;;;;;;;;;2209758;66;1485;-22
2023/03/12 15:46:16;;;;;;;;;;;;;;;;;;2210018;67;1413;-22
2023/03/12 15:48:49;;;;;;;;;;;;;;;;;;2208879;66;1563;-22
2023/03/12 15:51:31;;;;;;;;;;;;;;;;;;2209104;67;1218;-22
2023/03/12 15:54:03;;;;;;;;;;;;;;;;;;2209849;67;1200;-22
2023/03/12 15:56:34;;;;;;;;;;;;;;;;;;2209887;66;1314;-22
2023/03/12 15:59:19;;;;;;;;;;;;;;;;;;2209723;67;1304;-22
2023/03/12 16:01:53;;;;;;;;;;;;;;;;;;2208999;67;1991;-22
2023/03/12 16:04:27;;;;;;;;;;;;;;;;;;2209494;67;1748;-22
2023/03/12 16:06:58;;;;;;;;;;;;;;;;;;2209762;67;1772;-23
2023/03/12 16:09:32;;;;;;;;;;;;;;;;;;2210422;67;1162;-22
2023/03/12 16:12:02;;;;;;;;;;;;;;;;;;2209461;59;1775;-22
2023/03/12 16:14:35;;;;;;;;;;;;;;;;;;2209514;67;1498;-22
2023/03/12 16:17:17;;;;;;;;;;;;;;;;;;2210367;67;1870;-22
2023/03/12 16:19:48;;;;;;;;;;;;;;;;;;2210220;67;1387;-22
2023/03/12 16:22:19;;;;;;;;;;;;;;;;;;2210434;67;1940;-22
2023/03/12 16:24:49;;;;;;;;;;;;;;;;;;2211612;66;1661;-22
2023/03/12 16:27:19;;;;;;;;;;;;;;;;;;2209016;67;1677;-22
2023/03/12 16:29:49;;;;;;;;;;;;;;;;;;2210622;67;1215;-22
2023/03/12 16:32:20;;;;;;;;;;;;;;;;;;2209507;67;1209;-22
2023/03/12 16:34:50;;;;;;;;;;;;;;;;;;2208987;67;1454;-22
2023/03/12 16:37:20;;;;;;;;;;;;;;;;;;2209055;67;1741;-23
2023/03/12 16:39:50;;;;;;;;;;;;;;;;;;2212904;66;1448;-22
2023/03/12 16:42:20;;;;;;;;;;;;;;;;;;2210497;67;1945;-23
2023/03/12 16:44:51;;;;;;;;;;;;;;;;;;2209344;67;1702;-25
2023/03/12 16:47:21;;;;;;;;;;;;;;;;;;2209334;67;1363;-24
2023/03/12 16:49:51;;;;;;;;;;;;;;;;;;2209541;59;1344;-22
2023/03/12 16:52:23;;;;;;;;;;;;;;;;;;2211955;67;1514;-24
2023/03/12 16:54:53;;;;;;;;;;;;;;;;;;2210642;67;1485;-21
2023/03/12 16:57:30;;;;;;;;;;;;;;;;;;2209576;67;1396;-25
2023/03/12 17:00:02;;;;;;;;;;;;;;;;;;2209847;67;1850;-25
2023/03/12 17:02:33;;;;;;;;;;;;;;;;;;2209121;67;1944;-22
2023/03/12 17:05:03;;;;;;;;;;;;;;;;;;2209425;67;1980;-24
2023/03/12 17:07:34;;;;;;;;;;;;;;;;;;2209610;67;1307;-22
2023/03/12 17:10:05;;;;;;;;;;;;;;;;;;2209542;59;1968;-24
2023/03/12 17:12:36;;;;;;;;;;;;;;;;;;2208873;67;1143;-24
2023/03/12 17:15:10;;;;;;;;;;;;;;;;;;2209703;67;1156;-24
2023/03/12 17:17:40;;;;;;;;;;;;;;;;;;2209175;67;1779;-22
2023/03/12 17:20:13;;;;;;;;;;;;;;;;;;2209015;67;1422;-26
2023/03/12 17:22:43;;;;;;;;;;;;;;;;;;2209120;67;1959;-22
2023/03/12 17:25:22;;;;;;;;;;;;;;;;;;2209266;59;1158;-22
2023/03/12 17:27:52;;;;;;;;;;;;;;;;;;2210955;67;1730;-22
2023/03/12 17:30:23;;;;;;;;;;;;;;;;;;2212453;67;1281;-22
2023/03/12 17:33:00;;;;;;;;;;;;;;;;;;2210994;67;1644;-22
2023/03/12 17:35:31;;;;;;;;;;;;;;;;;;2209248;67;1380;-23
2023/03/12 17:38:02;;;;;;;;;;;;;;;;;;2209925;59;1354;-22
2023/03/12 17:40:34;;;;;;;;;;;;;;;;;;2210988;66;1957;-22
2023/03/12 17:43:04;;;;;;;;;;;;;;;;;;2208717;67;1255;-22
2023/03/12 17:45:37;;;;;;;;;;;;;;;;;;2209843;67;1660;-22